sensor_id;sensor_type;location;lat;lon;timestamp;P1;durP1;ratioP1;P2;durP2;ratioP2
3777;SDS011;1904;50.076;8.660;2023-06-22T00:01:09;15.37;;;8.50;;
3777;SDS011;1904;50.076;8.660;2023-06-22T00:03:34;10.37;;;7.70;;
3777;SDS011;1904;50.076;8.660;2023-06-22T00:06:00;15.20;;;7.90;;
3777;SDS011;1904;50.076;8.660;2023-06-22T00:08:26;9.70;;;7.67;;
3777;SDS011;1904;50.076;8.660;2023-06-22T00:10:54;10.00;;;7.77;;
3777;SDS011;1904;50.076;8.660;2023-06-22T00:13:19;12.13;;;8.77;;
3777;SDS011;1904;50.076;8.660;2023-06-22T00:15:54;12.53;;;8.33;;
3777;SDS011;1904;50.076;8.660;2023-06-22T00:26:55;15.27;;;8.10;;
3777;SDS011;1904;50.076;8.660;2023-06-22T00:29:20;13.93;;;8.50;;
3777;SDS011;1904;50.076;8.660;2023-06-22T00:31:46;12.80;;;8.07;;
3777;SDS011;1904;50.076;8.660;2023-06-22T00:34:12;20.03;;;8.30;;
3777;SDS011;1904;50.076;8.660;2023-06-22T00:36:37;12.07;;;8.27;;
3777;SDS011;1904;50.076;8.660;2023-06-22T00:39:05;16.23;;;8.57;;
3777;SDS011;1904;50.076;8.660;2023-06-22T00:41:32;10.33;;;7.87;;
3777;SDS011;1904;50.076;8.660;2023-06-22T00:43:59;12.57;;;7.80;;
3777;SDS011;1904;50.076;8.660;2023-06-22T00:46:24;11.20;;;8.00;;
3777;SDS011;1904;50.076;8.660;2023-06-22T00:48:54;16.53;;;7.70;;
3777;SDS011;1904;50.076;8.660;2023-06-22T00:51:22;11.53;;;7.40;;
3777;SDS011;1904;50.076;8.660;2023-06-22T00:53:53;18.50;;;8.10;;
3777;SDS011;1904;50.076;8.660;2023-06-22T00:56:20;9.73;;;6.73;;
3777;SDS011;1904;50.076;8.660;2023-06-22T00:58:49;9.43;;;7.07;;
3777;SDS011;1904;50.076;8.660;2023-06-22T01:01:18;11.10;;;7.23;;
3777;SDS011;1904;50.076;8.660;2023-06-22T01:03:48;8.53;;;7.07;;
3777;SDS011;1904;50.076;8.660;2023-06-22T01:06:16;11.63;;;7.20;;
3777;SDS011;1904;50.076;8.660;2023-06-22T01:08:53;10.40;;;7.37;;
3777;SDS011;1904;50.076;8.660;2023-06-22T01:11:43;13.10;;;8.27;;
3777;SDS011;1904;50.076;8.660;2023-06-22T01:17:23;11.10;;;8.30;;
3777;SDS011;1904;50.076;8.660;2023-06-22T01:25:47;11.40;;;8.70;;
3777;SDS011;1904;50.076;8.660;2023-06-22T01:28:49;16.63;;;9.03;;
3777;SDS011;1904;50.076;8.660;2023-06-22T01:31:18;13.60;;;8.40;;
3777;SDS011;1904;50.076;8.660;2023-06-22T01:33:58;11.90;;;8.73;;
3777;SDS011;1904;50.076;8.660;2023-06-22T01:36:26;15.10;;;9.40;;
3777;SDS011;1904;50.076;8.660;2023-06-22T01:38:53;15.07;;;9.13;;
3777;SDS011;1904;50.076;8.660;2023-06-22T01:41:19;14.70;;;9.10;;
3777;SDS011;1904;50.076;8.660;2023-06-22T01:43:46;12.80;;;10.37;;
3777;SDS011;1904;50.076;8.660;2023-06-22T01:46:13;12.90;;;9.50;;
3777;SDS011;1904;50.076;8.660;2023-06-22T01:48:40;15.67;;;9.90;;
3777;SDS011;1904;50.076;8.660;2023-06-22T01:51:06;14.90;;;10.63;;
3777;SDS011;1904;50.076;8.660;2023-06-22T01:53:32;17.40;;;10.37;;
3777;SDS011;1904;50.076;8.660;2023-06-22T01:56:05;14.93;;;11.10;;
3777;SDS011;1904;50.076;8.660;2023-06-22T02:10:24;15.17;;;11.50;;
3777;SDS011;1904;50.076;8.660;2023-06-22T02:12:52;14.83;;;11.20;;
3777;SDS011;1904;50.076;8.660;2023-06-22T02:15:19;14.63;;;11.50;;
3777;SDS011;1904;50.076;8.660;2023-06-22T02:17:48;17.83;;;12.57;;
3777;SDS011;1904;50.076;8.660;2023-06-22T02:20:14;15.80;;;12.17;;
3777;SDS011;1904;50.076;8.660;2023-06-22T02:22:42;15.50;;;12.00;;
3777;SDS011;1904;50.076;8.660;2023-06-22T02:25:07;20.37;;;12.27;;
3777;SDS011;1904;50.076;8.660;2023-06-22T02:27:36;27.93;;;12.13;;
3777;SDS011;1904;50.076;8.660;2023-06-22T02:30:06;16.90;;;11.73;;
3777;SDS011;1904;50.076;8.660;2023-06-22T02:32:33;16.63;;;12.50;;
3777;SDS011;1904;50.076;8.660;2023-06-22T02:34:59;15.63;;;12.47;;
3777;SDS011;1904;50.076;8.660;2023-06-22T02:37:25;14.33;;;11.60;;
3777;SDS011;1904;50.076;8.660;2023-06-22T02:39:54;15.77;;;11.77;;
3777;SDS011;1904;50.076;8.660;2023-06-22T02:42:20;14.83;;;12.17;;
3777;SDS011;1904;50.076;8.660;2023-06-22T02:44:46;14.47;;;12.17;;
3777;SDS011;1904;50.076;8.660;2023-06-22T02:47:17;17.27;;;12.10;;
3777;SDS011;1904;50.076;8.660;2023-06-22T02:49:43;18.50;;;12.70;;
3777;SDS011;1904;50.076;8.660;2023-06-22T02:52:11;19.93;;;12.10;;
3777;SDS011;1904;50.076;8.660;2023-06-22T02:54:48;21.70;;;12.00;;
3777;SDS011;1904;50.076;8.660;2023-06-22T03:00:24;16.67;;;12.93;;
3777;SDS011;1904;50.076;8.660;2023-06-22T03:02:55;15.40;;;12.37;;
3777;SDS011;1904;50.076;8.660;2023-06-22T03:05:24;16.40;;;11.73;;
3777;SDS011;1904;50.076;8.660;2023-06-22T03:07:59;15.00;;;11.23;;
3777;SDS011;1904;50.076;8.660;2023-06-22T03:10:26;20.27;;;12.40;;
3777;SDS011;1904;50.076;8.660;2023-06-22T03:13:06;19.63;;;12.33;;
3777;SDS011;1904;50.076;8.660;2023-06-22T03:18:59;21.70;;;12.13;;
3777;SDS011;1904;50.076;8.660;2023-06-22T03:21:36;14.77;;;11.90;;
3777;SDS011;1904;50.076;8.660;2023-06-22T03:24:03;18.33;;;12.10;;
3777;SDS011;1904;50.076;8.660;2023-06-22T03:26:41;16.10;;;12.67;;
3777;SDS011;1904;50.076;8.660;2023-06-22T03:29:23;16.80;;;12.30;;
3777;SDS011;1904;50.076;8.660;2023-06-22T03:40:25;14.90;;;12.07;;
3777;SDS011;1904;50.076;8.660;2023-06-22T03:43:05;16.30;;;11.70;;
3777;SDS011;1904;50.076;8.660;2023-06-22T03:45:36;18.27;;;12.37;;
3777;SDS011;1904;50.076;8.660;2023-06-22T03:48:06;15.07;;;11.80;;
3777;SDS011;1904;50.076;8.660;2023-06-22T03:50:36;18.10;;;11.90;;
3777;SDS011;1904;50.076;8.660;2023-06-22T03:56:19;15.83;;;12.40;;
3777;SDS011;1904;50.076;8.660;2023-06-22T04:01:31;19.50;;;12.90;;
3777;SDS011;1904;50.076;8.660;2023-06-22T04:04:06;18.93;;;13.30;;
3777;SDS011;1904;50.076;8.660;2023-06-22T04:06:36;15.87;;;11.37;;
3777;SDS011;1904;50.076;8.660;2023-06-22T04:09:12;16.57;;;11.90;;
3777;SDS011;1904;50.076;8.660;2023-06-22T04:14:55;17.00;;;11.80;;
3777;SDS011;1904;50.076;8.660;2023-06-22T04:20:54;17.20;;;10.90;;
3777;SDS011;1904;50.076;8.660;2023-06-22T04:26:18;19.33;;;12.17;;
3777;SDS011;1904;50.076;8.660;2023-06-22T04:28:46;14.53;;;11.60;;
3777;SDS011;1904;50.076;8.660;2023-06-22T04:40:59;17.83;;;11.57;;
3777;SDS011;1904;50.076;8.660;2023-06-22T04:46:19;16.60;;;11.47;;
3777;SDS011;1904;50.076;8.660;2023-06-22T04:55:18;18.20;;;12.03;;
3777;SDS011;1904;50.076;8.660;2023-06-22T05:04:06;15.13;;;11.17;;
3777;SDS011;1904;50.076;8.660;2023-06-22T05:06:36;15.10;;;11.10;;
3777;SDS011;1904;50.076;8.660;2023-06-22T05:12:18;14.20;;;11.40;;
3777;SDS011;1904;50.076;8.660;2023-06-22T05:18:05;12.50;;;10.63;;
3777;SDS011;1904;50.076;8.660;2023-06-22T05:20:41;14.70;;;10.80;;
3777;SDS011;1904;50.076;8.660;2023-06-22T05:23:12;14.10;;;10.73;;
3777;SDS011;1904;50.076;8.660;2023-06-22T05:31:36;13.70;;;10.70;;
3777;SDS011;1904;50.076;8.660;2023-06-22T05:46:36;14.60;;;10.40;;
3777;SDS011;1904;50.076;8.660;2023-06-22T05:52:24;17.90;;;12.70;;
3777;SDS011;1904;50.076;8.660;2023-06-22T05:57:42;15.43;;;10.80;;
3777;SDS011;1904;50.076;8.660;2023-06-22T06:00:18;14.23;;;10.00;;
3777;SDS011;1904;50.076;8.660;2023-06-22T06:02:48;14.83;;;10.93;;
3777;SDS011;1904;50.076;8.660;2023-06-22T06:05:14;14.20;;;10.50;;
3777;SDS011;1904;50.076;8.660;2023-06-22T06:10:48;15.73;;;9.83;;
3777;SDS011;1904;50.076;8.660;2023-06-22T06:13:18;19.23;;;9.53;;
3777;SDS011;1904;50.076;8.660;2023-06-22T06:15:47;16.77;;;10.00;;
3777;SDS011;1904;50.076;8.660;2023-06-22T06:18:24;18.70;;;9.60;;
3777;SDS011;1904;50.076;8.660;2023-06-22T06:21:00;16.90;;;10.37;;
3777;SDS011;1904;50.076;8.660;2023-06-22T06:26:35;22.13;;;9.40;;
3777;SDS011;1904;50.076;8.660;2023-06-22T06:29:06;15.13;;;9.70;;
3777;SDS011;1904;50.076;8.660;2023-06-22T06:31:32;22.00;;;9.50;;
3777;SDS011;1904;50.076;8.660;2023-06-22T06:36:55;13.63;;;9.47;;
3777;SDS011;1904;50.076;8.660;2023-06-22T06:45:00;12.40;;;9.50;;
3777;SDS011;1904;50.076;8.660;2023-06-22T06:47:29;13.40;;;9.70;;
3777;SDS011;1904;50.076;8.660;2023-06-22T06:50:12;12.83;;;8.73;;
3777;SDS011;1904;50.076;8.660;2023-06-22T06:55:25;14.40;;;8.70;;
3777;SDS011;1904;50.076;8.660;2023-06-22T07:00:38;15.23;;;8.87;;
3777;SDS011;1904;50.076;8.660;2023-06-22T07:11:37;13.23;;;9.10;;
3777;SDS011;1904;50.076;8.660;2023-06-22T07:17:12;14.73;;;9.10;;
3777;SDS011;1904;50.076;8.660;2023-06-22T07:19:38;13.67;;;9.27;;
3777;SDS011;1904;50.076;8.660;2023-06-22T07:22:12;15.73;;;8.67;;
3777;SDS011;1904;50.076;8.660;2023-06-22T07:24:42;12.73;;;9.00;;
3777;SDS011;1904;50.076;8.660;2023-06-22T07:27:12;11.83;;;8.30;;
3777;SDS011;1904;50.076;8.660;2023-06-22T07:32:30;11.40;;;8.63;;
3777;SDS011;1904;50.076;8.660;2023-06-22T07:35:06;19.33;;;8.63;;
3777;SDS011;1904;50.076;8.660;2023-06-22T07:37:42;10.20;;;7.97;;
3777;SDS011;1904;50.076;8.660;2023-06-22T07:40:12;12.80;;;9.43;;
3777;SDS011;1904;50.076;8.660;2023-06-22T07:42:42;15.53;;;9.30;;
3777;SDS011;1904;50.076;8.660;2023-06-22T07:51:12;12.70;;;9.30;;
3777;SDS011;1904;50.076;8.660;2023-06-22T07:59:54;22.70;;;9.23;;
3777;SDS011;1904;50.076;8.660;2023-06-22T08:05:42;13.70;;;9.37;;
3777;SDS011;1904;50.076;8.660;2023-06-22T08:08:24;11.50;;;8.60;;
3777;SDS011;1904;50.076;8.660;2023-06-22T08:10:54;11.97;;;9.50;;
3777;SDS011;1904;50.076;8.660;2023-06-22T08:16:12;14.77;;;9.43;;
3777;SDS011;1904;50.076;8.660;2023-06-22T08:21:37;20.30;;;8.53;;
3777;SDS011;1904;50.076;8.660;2023-06-22T08:27:01;18.00;;;9.10;;
3777;SDS011;1904;50.076;8.660;2023-06-22T08:29:36;12.60;;;9.13;;
3777;SDS011;1904;50.076;8.660;2023-06-22T08:32:02;12.20;;;9.13;;
3777;SDS011;1904;50.076;8.660;2023-06-22T08:37:24;12.50;;;9.50;;
3777;SDS011;1904;50.076;8.660;2023-06-22T08:43:00;10.50;;;9.30;;
3777;SDS011;1904;50.076;8.660;2023-06-22T08:48:54;10.40;;;9.33;;
3777;SDS011;1904;50.076;8.660;2023-06-22T08:54:12;13.30;;;9.60;;
3777;SDS011;1904;50.076;8.660;2023-06-22T08:56:42;19.90;;;9.27;;
3777;SDS011;1904;50.076;8.660;2023-06-22T09:04:49;9.47;;;8.40;;
3777;SDS011;1904;50.076;8.660;2023-06-22T09:07:24;10.47;;;7.83;;
3777;SDS011;1904;50.076;8.660;2023-06-22T09:09:54;12.47;;;8.73;;
3777;SDS011;1904;50.076;8.660;2023-06-22T09:12:20;13.20;;;9.37;;
3777;SDS011;1904;50.076;8.660;2023-06-22T09:14:50;9.83;;;8.53;;
3777;SDS011;1904;50.076;8.660;2023-06-22T09:23:42;9.50;;;7.73;;
3777;SDS011;1904;50.076;8.660;2023-06-22T09:26:24;16.60;;;13.20;;
3777;SDS011;1904;50.076;8.660;2023-06-22T09:32:12;11.90;;;8.53;;
3777;SDS011;1904;50.076;8.660;2023-06-22T09:34:42;10.27;;;8.30;;
3777;SDS011;1904;50.076;8.660;2023-06-22T09:37:12;11.27;;;8.60;;
3777;SDS011;1904;50.076;8.660;2023-06-22T09:39:42;9.43;;;8.30;;
3777;SDS011;1904;50.076;8.660;2023-06-22T09:51:42;8.97;;;8.07;;
3777;SDS011;1904;50.076;8.660;2023-06-22T09:54:07;8.73;;;7.80;;
3777;SDS011;1904;50.076;8.660;2023-06-22T09:56:33;12.30;;;7.20;;
3777;SDS011;1904;50.076;8.660;2023-06-22T09:59:06;8.23;;;7.37;;
3777;SDS011;1904;50.076;8.660;2023-06-22T10:01:31;7.80;;;6.77;;
3777;SDS011;1904;50.076;8.660;2023-06-22T10:04:00;8.30;;;7.37;;
3777;SDS011;1904;50.076;8.660;2023-06-22T10:06:30;8.67;;;6.80;;
3777;SDS011;1904;50.076;8.660;2023-06-22T10:09:06;10.83;;;6.60;;
3777;SDS011;1904;50.076;8.660;2023-06-22T10:11:42;7.83;;;7.13;;
3777;SDS011;1904;50.076;8.660;2023-06-22T10:14:12;7.80;;;7.00;;
3777;SDS011;1904;50.076;8.660;2023-06-22T10:19:42;8.20;;;7.17;;
3777;SDS011;1904;50.076;8.660;2023-06-22T10:22:12;11.93;;;7.07;;
3777;SDS011;1904;50.076;8.660;2023-06-22T10:24:42;7.63;;;6.93;;
3777;SDS011;1904;50.076;8.660;2023-06-22T10:27:12;10.37;;;7.30;;
3777;SDS011;1904;50.076;8.660;2023-06-22T10:29:42;8.20;;;7.40;;
3777;SDS011;1904;50.076;8.660;2023-06-22T10:32:12;8.87;;;6.90;;
3777;SDS011;1904;50.076;8.660;2023-06-22T10:34:42;8.43;;;7.50;;
3777;SDS011;1904;50.076;8.660;2023-06-22T10:37:12;7.83;;;7.03;;
3777;SDS011;1904;50.076;8.660;2023-06-22T10:42:14;12.27;;;6.70;;
3777;SDS011;1904;50.076;8.660;2023-06-22T10:44:42;7.70;;;6.33;;
3777;SDS011;1904;50.076;8.660;2023-06-22T10:47:09;6.87;;;6.13;;
3777;SDS011;1904;50.076;8.660;2023-06-22T10:49:42;7.93;;;6.80;;
3777;SDS011;1904;50.076;8.660;2023-06-22T10:52:12;13.53;;;7.13;;
3777;SDS011;1904;50.076;8.660;2023-06-22T10:54:42;7.50;;;6.60;;
3777;SDS011;1904;50.076;8.660;2023-06-22T10:57:18;7.17;;;6.43;;
3777;SDS011;1904;50.076;8.660;2023-06-22T11:02:38;7.20;;;6.50;;
3777;SDS011;1904;50.076;8.660;2023-06-22T11:05:04;8.47;;;5.83;;
3777;SDS011;1904;50.076;8.660;2023-06-22T11:07:36;8.00;;;6.30;;
3777;SDS011;1904;50.076;8.660;2023-06-22T11:10:12;12.50;;;6.43;;
3777;SDS011;1904;50.076;8.660;2023-06-22T11:12:42;12.13;;;6.30;;
3777;SDS011;1904;50.076;8.660;2023-06-22T11:15:12;6.97;;;6.27;;
3777;SDS011;1904;50.076;8.660;2023-06-22T11:17:42;6.77;;;6.13;;
3777;SDS011;1904;50.076;8.660;2023-06-22T11:20:12;9.43;;;6.53;;
3777;SDS011;1904;50.076;8.660;2023-06-22T11:22:38;6.70;;;6.03;;
3777;SDS011;1904;50.076;8.660;2023-06-22T11:25:06;7.60;;;6.03;;
3777;SDS011;1904;50.076;8.660;2023-06-22T11:27:42;7.47;;;6.77;;
3777;SDS011;1904;50.076;8.660;2023-06-22T11:30:12;8.97;;;6.57;;
3777;SDS011;1904;50.076;8.660;2023-06-22T11:32:42;13.27;;;6.17;;
3777;SDS011;1904;50.076;8.660;2023-06-22T11:35:12;11.43;;;7.00;;
3777;SDS011;1904;50.076;8.660;2023-06-22T11:37:42;11.67;;;6.50;;
3777;SDS011;1904;50.076;8.660;2023-06-22T11:40:12;8.07;;;7.07;;
3777;SDS011;1904;50.076;8.660;2023-06-22T11:42:38;8.40;;;6.73;;
3777;SDS011;1904;50.076;8.660;2023-06-22T11:45:12;12.80;;;6.90;;
3777;SDS011;1904;50.076;8.660;2023-06-22T11:47:38;10.80;;;6.43;;
3777;SDS011;1904;50.076;8.660;2023-06-22T11:50:06;17.80;;;6.70;;
3777;SDS011;1904;50.076;8.660;2023-06-22T11:52:33;13.17;;;6.80;;
3777;SDS011;1904;50.076;8.660;2023-06-22T11:55:12;10.10;;;6.10;;
3777;SDS011;1904;50.076;8.660;2023-06-22T11:57:54;11.37;;;7.17;;
3777;SDS011;1904;50.076;8.660;2023-06-22T12:07:18;10.03;;;5.80;;
3777;SDS011;1904;50.076;8.660;2023-06-22T12:09:43;12.27;;;6.07;;
3777;SDS011;1904;50.076;8.660;2023-06-22T12:12:18;10.80;;;5.70;;
3777;SDS011;1904;50.076;8.660;2023-06-22T12:18:24;12.33;;;6.07;;
3777;SDS011;1904;50.076;8.660;2023-06-22T12:24:11;11.80;;;6.33;;
3777;SDS011;1904;50.076;8.660;2023-06-22T12:29:59;9.13;;;6.27;;
3777;SDS011;1904;50.076;8.660;2023-06-22T12:32:25;9.37;;;6.30;;
3777;SDS011;1904;50.076;8.660;2023-06-22T12:38:13;8.13;;;6.03;;
3777;SDS011;1904;50.076;8.660;2023-06-22T12:40:42;15.17;;;6.80;;
3777;SDS011;1904;50.076;8.660;2023-06-22T12:49:30;9.80;;;6.20;;
3777;SDS011;1904;50.076;8.660;2023-06-22T12:55:24;9.03;;;6.37;;
3777;SDS011;1904;50.076;8.660;2023-06-22T12:57:50;10.57;;;6.50;;
3777;SDS011;1904;50.076;8.660;2023-06-22T13:00:15;12.30;;;6.80;;
3777;SDS011;1904;50.076;8.660;2023-06-22T13:05:42;14.13;;;7.03;;
3777;SDS011;1904;50.076;8.660;2023-06-22T13:08:24;10.03;;;6.10;;
3777;SDS011;1904;50.076;8.660;2023-06-22T13:11:00;11.00;;;6.73;;
3777;SDS011;1904;50.076;8.660;2023-06-22T13:13:25;19.67;;;7.37;;
3777;SDS011;1904;50.076;8.660;2023-06-22T13:16:00;11.93;;;6.60;;
3777;SDS011;1904;50.076;8.660;2023-06-22T13:21:24;12.10;;;6.40;;
3777;SDS011;1904;50.076;8.660;2023-06-22T13:24:00;20.83;;;6.63;;
3777;SDS011;1904;50.076;8.660;2023-06-22T13:29:48;9.70;;;6.63;;
3777;SDS011;1904;50.076;8.660;2023-06-22T13:32:24;10.87;;;6.10;;
3777;SDS011;1904;50.076;8.660;2023-06-22T13:38:11;15.77;;;6.70;;
3777;SDS011;1904;50.076;8.660;2023-06-22T13:40:42;9.30;;;6.20;;
3777;SDS011;1904;50.076;8.660;2023-06-22T13:43:12;11.77;;;6.10;;
3777;SDS011;1904;50.076;8.660;2023-06-22T13:48:54;9.53;;;6.40;;
3777;SDS011;1904;50.076;8.660;2023-06-22T13:54:42;8.50;;;5.77;;
3777;SDS011;1904;50.076;8.660;2023-06-22T13:57:12;17.10;;;7.13;;
3777;SDS011;1904;50.076;8.660;2023-06-22T14:02:49;14.87;;;7.07;;
3777;SDS011;1904;50.076;8.660;2023-06-22T14:05:18;14.20;;;6.03;;
3777;SDS011;1904;50.076;8.660;2023-06-22T14:07:44;10.37;;;5.97;;
3777;SDS011;1904;50.076;8.660;2023-06-22T14:10:10;15.07;;;5.93;;
3777;SDS011;1904;50.076;8.660;2023-06-22T14:12:48;9.87;;;5.90;;
3777;SDS011;1904;50.076;8.660;2023-06-22T14:15:30;17.50;;;5.80;;
3777;SDS011;1904;50.076;8.660;2023-06-22T14:26:49;9.60;;;5.20;;
3777;SDS011;1904;50.076;8.660;2023-06-22T14:35:54;9.17;;;4.73;;
3777;SDS011;1904;50.076;8.660;2023-06-22T14:38:36;11.03;;;5.00;;
3777;SDS011;1904;50.076;8.660;2023-06-22T14:41:12;14.00;;;4.97;;
3777;SDS011;1904;50.076;8.660;2023-06-22T14:43:54;14.37;;;4.63;;
3777;SDS011;1904;50.076;8.660;2023-06-22T14:46:24;18.30;;;5.53;;
3777;SDS011;1904;50.076;8.660;2023-06-22T14:48:54;10.27;;;4.60;;
3777;SDS011;1904;50.076;8.660;2023-06-22T14:54:07;10.07;;;4.50;;
3777;SDS011;1904;50.076;8.660;2023-06-22T14:56:42;14.93;;;4.87;;
3777;SDS011;1904;50.076;8.660;2023-06-22T15:04:54;16.33;;;4.60;;
3777;SDS011;1904;50.076;8.660;2023-06-22T15:07:20;10.70;;;4.50;;
3777;SDS011;1904;50.076;8.660;2023-06-22T15:10:00;6.43;;;4.33;;
3777;SDS011;1904;50.076;8.660;2023-06-22T15:12:30;14.90;;;5.30;;
3777;SDS011;1904;50.076;8.660;2023-06-22T15:17:48;9.60;;;4.60;;
3777;SDS011;1904;50.076;8.660;2023-06-22T15:20:15;21.40;;;5.80;;
3777;SDS011;1904;50.076;8.660;2023-06-22T15:22:42;12.73;;;5.10;;
3777;SDS011;1904;50.076;8.660;2023-06-22T15:25:12;40.03;;;5.00;;
3777;SDS011;1904;50.076;8.660;2023-06-22T15:27:39;18.70;;;5.07;;
3777;SDS011;1904;50.076;8.660;2023-06-22T15:30:12;20.60;;;5.20;;
3777;SDS011;1904;50.076;8.660;2023-06-22T15:32:54;13.67;;;4.67;;
3777;SDS011;1904;50.076;8.660;2023-06-22T15:35:20;14.03;;;4.40;;
3777;SDS011;1904;50.076;8.660;2023-06-22T15:37:48;23.47;;;4.80;;
3777;SDS011;1904;50.076;8.660;2023-06-22T15:40:24;12.40;;;5.20;;
3777;SDS011;1904;50.076;8.660;2023-06-22T15:42:54;19.67;;;5.27;;
3777;SDS011;1904;50.076;8.660;2023-06-22T15:45:20;14.20;;;5.27;;
3777;SDS011;1904;50.076;8.660;2023-06-22T15:47:46;13.33;;;4.87;;
3777;SDS011;1904;50.076;8.660;2023-06-22T15:50:12;18.73;;;5.67;;
3777;SDS011;1904;50.076;8.660;2023-06-22T15:52:48;10.63;;;4.50;;
3777;SDS011;1904;50.076;8.660;2023-06-22T16:01:11;16.10;;;4.47;;
3777;SDS011;1904;50.076;8.660;2023-06-22T16:07:12;21.00;;;4.73;;
3777;SDS011;1904;50.076;8.660;2023-06-22T16:09:48;16.83;;;4.43;;
3777;SDS011;1904;50.076;8.660;2023-06-22T16:15:12;19.70;;;4.40;;
3777;SDS011;1904;50.076;8.660;2023-06-22T16:17:42;13.97;;;4.57;;
3777;SDS011;1904;50.076;8.660;2023-06-22T16:23:30;14.63;;;3.70;;
3777;SDS011;1904;50.076;8.660;2023-06-22T16:25:55;15.17;;;3.50;;
3777;SDS011;1904;50.076;8.660;2023-06-22T16:28:24;5.77;;;3.07;;
3777;SDS011;1904;50.076;8.660;2023-06-22T16:31:06;13.77;;;2.73;;
3777;SDS011;1904;50.076;8.660;2023-06-22T16:33:42;6.30;;;2.50;;
3777;SDS011;1904;50.076;8.660;2023-06-22T16:36:18;7.80;;;2.10;;
3777;SDS011;1904;50.076;8.660;2023-06-22T16:38:44;8.13;;;2.93;;
3777;SDS011;1904;50.076;8.660;2023-06-22T16:41:12;11.67;;;3.17;;
3777;SDS011;1904;50.076;8.660;2023-06-22T16:43:42;13.23;;;3.07;;
3777;SDS011;1904;50.076;8.660;2023-06-22T16:46:07;9.57;;;2.93;;
3777;SDS011;1904;50.076;8.660;2023-06-22T16:48:35;10.53;;;3.40;;
3777;SDS011;1904;50.076;8.660;2023-06-22T16:51:05;10.93;;;3.20;;
3777;SDS011;1904;50.076;8.660;2023-06-22T16:53:43;8.80;;;3.80;;
3777;SDS011;1904;50.076;8.660;2023-06-22T16:56:25;8.57;;;3.27;;
3777;SDS011;1904;50.076;8.660;2023-06-22T17:01:48;11.17;;;3.17;;
3777;SDS011;1904;50.076;8.660;2023-06-22T17:04:24;20.47;;;4.77;;
3777;SDS011;1904;50.076;8.660;2023-06-22T17:07:09;15.37;;;3.50;;
3777;SDS011;1904;50.076;8.660;2023-06-22T17:09:38;9.57;;;4.57;;
3777;SDS011;1904;50.076;8.660;2023-06-22T17:12:06;11.43;;;4.00;;
3777;SDS011;1904;50.076;8.660;2023-06-22T17:14:42;11.87;;;4.20;;
3777;SDS011;1904;50.076;8.660;2023-06-22T17:17:13;14.00;;;3.47;;
3777;SDS011;1904;50.076;8.660;2023-06-22T17:22:36;12.53;;;3.50;;
3777;SDS011;1904;50.076;8.660;2023-06-22T17:25:06;8.87;;;3.57;;
3777;SDS011;1904;50.076;8.660;2023-06-22T17:27:34;15.73;;;4.20;;
3777;SDS011;1904;50.076;8.660;2023-06-22T17:33:37;14.63;;;3.57;;
3777;SDS011;1904;50.076;8.660;2023-06-22T17:46:09;9.37;;;3.97;;
3777;SDS011;1904;50.076;8.660;2023-06-22T17:55:30;7.83;;;4.30;;
3777;SDS011;1904;50.076;8.660;2023-06-22T17:58:06;13.80;;;4.57;;
3777;SDS011;1904;50.076;8.660;2023-06-22T18:03:49;14.40;;;3.40;;
3777;SDS011;1904;50.076;8.660;2023-06-22T18:12:36;17.47;;;4.07;;
3777;SDS011;1904;50.076;8.660;2023-06-22T18:18:36;6.67;;;3.97;;
3777;SDS011;1904;50.076;8.660;2023-06-22T18:23:54;9.07;;;4.10;;
3777;SDS011;1904;50.076;8.660;2023-06-22T18:32:36;17.20;;;4.40;;
3777;SDS011;1904;50.076;8.660;2023-06-22T18:35:18;11.30;;;3.90;;
3777;SDS011;1904;50.076;8.660;2023-06-22T18:41:06;8.73;;;3.97;;
3777;SDS011;1904;50.076;8.660;2023-06-22T18:43:54;9.30;;;4.00;;
3777;SDS011;1904;50.076;8.660;2023-06-22T18:46:31;10.03;;;3.83;;
3777;SDS011;1904;50.076;8.660;2023-06-22T18:49:15;10.57;;;3.87;;
3777;SDS011;1904;50.076;8.660;2023-06-22T18:51:55;13.80;;;4.97;;
3777;SDS011;1904;50.076;8.660;2023-06-22T19:28:05;8.97;;;4.50;;
3777;SDS011;1904;50.076;8.660;2023-06-22T19:30:42;8.60;;;4.80;;
3777;SDS011;1904;50.076;8.660;2023-06-22T19:45:54;14.90;;;5.97;;
3777;SDS011;1904;50.076;8.660;2023-06-22T19:51:48;12.97;;;5.47;;
3777;SDS011;1904;50.076;8.660;2023-06-22T20:03:31;21.30;;;6.10;;
3777;SDS011;1904;50.076;8.660;2023-06-22T20:12:00;13.93;;;6.20;;
3777;SDS011;1904;50.076;8.660;2023-06-22T20:14:30;19.77;;;5.83;;
3777;SDS011;1904;50.076;8.660;2023-06-22T20:16:59;12.90;;;6.20;;
3777;SDS011;1904;50.076;8.660;2023-06-22T20:19:36;16.10;;;5.93;;
3777;SDS011;1904;50.076;8.660;2023-06-22T20:22:06;12.10;;;5.33;;
3777;SDS011;1904;50.076;8.660;2023-06-22T20:24:32;9.00;;;5.20;;
3777;SDS011;1904;50.076;8.660;2023-06-22T20:27:00;10.33;;;5.07;;
3777;SDS011;1904;50.076;8.660;2023-06-22T20:29:36;6.47;;;4.03;;
3777;SDS011;1904;50.076;8.660;2023-06-22T20:32:02;5.73;;;3.03;;
3777;SDS011;1904;50.076;8.660;2023-06-22T20:34:45;10.80;;;3.23;;
3777;SDS011;1904;50.076;8.660;2023-06-22T20:37:18;2.90;;;2.10;;
3777;SDS011;1904;50.076;8.660;2023-06-22T20:42:48;2.30;;;1.80;;
3777;SDS011;1904;50.076;8.660;2023-06-22T20:45:30;3.13;;;1.30;;
3777;SDS011;1904;50.076;8.660;2023-06-22T20:48:06;1.60;;;1.17;;
3777;SDS011;1904;50.076;8.660;2023-06-22T20:50:36;1.20;;;1.10;;
3777;SDS011;1904;50.076;8.660;2023-06-22T20:53:02;3.00;;;1.40;;
3777;SDS011;1904;50.076;8.660;2023-06-22T20:55:30;1.97;;;1.23;;
3777;SDS011;1904;50.076;8.660;2023-06-22T20:58:06;0.97;;;0.97;;
3777;SDS011;1904;50.076;8.660;2023-06-22T21:00:36;0.93;;;0.83;;
3777;SDS011;1904;50.076;8.660;2023-06-22T21:03:07;1.27;;;1.03;;
3777;SDS011;1904;50.076;8.660;2023-06-22T21:05:48;1.37;;;1.10;;
3777;SDS011;1904;50.076;8.660;2023-06-22T21:08:13;1.10;;;1.00;;
3777;SDS011;1904;50.076;8.660;2023-06-22T21:10:39;1.90;;;0.90;;
3777;SDS011;1904;50.076;8.660;2023-06-22T21:13:05;2.60;;;0.90;;
3777;SDS011;1904;50.076;8.660;2023-06-22T21:15:31;0.70;;;0.70;;
3777;SDS011;1904;50.076;8.660;2023-06-22T21:17:57;1.57;;;0.80;;
3777;SDS011;1904;50.076;8.660;2023-06-22T21:20:24;0.70;;;0.70;;
3777;SDS011;1904;50.076;8.660;2023-06-22T21:22:50;0.80;;;0.80;;
3777;SDS011;1904;50.076;8.660;2023-06-22T21:34:07;1.47;;;0.80;;
3777;SDS011;1904;50.076;8.660;2023-06-22T21:39:31;0.60;;;0.60;;
3777;SDS011;1904;50.076;8.660;2023-06-22T21:42:06;2.30;;;0.70;;
3777;SDS011;1904;50.076;8.660;2023-06-22T21:44:32;6.33;;;0.90;;
3777;SDS011;1904;50.076;8.660;2023-06-22T21:47:00;0.67;;;0.67;;
3777;SDS011;1904;50.076;8.660;2023-06-22T21:49:26;2.83;;;0.77;;
3777;SDS011;1904;50.076;8.660;2023-06-22T21:51:51;0.80;;;0.80;;
3777;SDS011;1904;50.076;8.660;2023-06-22T21:54:17;3.03;;;0.80;;
3777;SDS011;1904;50.076;8.660;2023-06-22T21:56:43;2.23;;;0.60;;
3777;SDS011;1904;50.076;8.660;2023-06-22T21:59:18;5.67;;;0.80;;
3777;SDS011;1904;50.076;8.660;2023-06-22T22:02:00;1.23;;;0.70;;
3777;SDS011;1904;50.076;8.660;2023-06-22T22:04:26;2.20;;;0.60;;
3777;SDS011;1904;50.076;8.660;2023-06-22T22:12:36;1.00;;;0.53;;
3777;SDS011;1904;50.076;8.660;2023-06-22T22:15:06;3.73;;;0.63;;
3777;SDS011;1904;50.076;8.660;2023-06-22T22:17:36;0.60;;;0.50;;
3777;SDS011;1904;50.076;8.660;2023-06-22T22:20:06;3.33;;;0.60;;
3777;SDS011;1904;50.076;8.660;2023-06-22T22:22:36;1.57;;;0.60;;
3777;SDS011;1904;50.076;8.660;2023-06-22T22:25:02;2.47;;;0.67;;
3777;SDS011;1904;50.076;8.660;2023-06-22T22:27:27;0.70;;;0.70;;
3777;SDS011;1904;50.076;8.660;2023-06-22T22:29:53;3.73;;;0.70;;
3777;SDS011;1904;50.076;8.660;2023-06-22T22:32:24;3.07;;;0.80;;
3777;SDS011;1904;50.076;8.660;2023-06-22T22:34:54;5.10;;;0.70;;
3777;SDS011;1904;50.076;8.660;2023-06-22T22:37:24;3.90;;;0.60;;
3777;SDS011;1904;50.076;8.660;2023-06-22T22:40:06;7.70;;;0.70;;
3777;SDS011;1904;50.076;8.660;2023-06-22T22:45:42;1.63;;;0.97;;
3777;SDS011;1904;50.076;8.660;2023-06-22T22:50:57;2.00;;;0.90;;
3777;SDS011;1904;50.076;8.660;2023-06-22T22:53:29;5.43;;;0.80;;
3777;SDS011;1904;50.076;8.660;2023-06-22T22:55:56;3.20;;;1.40;;
3777;SDS011;1904;50.076;8.660;2023-06-22T22:58:30;0.90;;;0.90;;
3777;SDS011;1904;50.076;8.660;2023-06-22T23:01:00;0.90;;;0.90;;